createdAt,value
2022-08-25T00:01:54.929Z,4.78
2022-08-25T00:04:24.079Z,4.68
2022-08-25T00:06:53.239Z,5.40
2022-08-25T00:09:23.354Z,5.15
2022-08-25T00:11:52.088Z,5.20
2022-08-25T00:58:36.159Z,4.43
2022-08-25T01:01:04.552Z,4.75
2022-08-25T01:03:34.068Z,6.68
2022-08-25T01:06:05.157Z,4.62
2022-08-25T01:08:33.248Z,5.20
2022-08-25T01:11:04.245Z,5.40
2022-08-25T01:13:40.346Z,6.37
2022-08-25T01:16:08.855Z,4.37
2022-08-25T01:18:56.640Z,5.32
2022-08-25T01:21:27.544Z,4.90
2022-08-25T01:23:58.416Z,5.57
2022-08-25T01:26:30.129Z,5.00
2022-08-25T01:29:37.484Z,5.18
2022-08-25T01:32:09.183Z,6.03
2022-08-25T01:34:40.782Z,4.35
2022-08-25T01:37:13.407Z,5.37
2022-08-25T01:39:42.138Z,5.93
2022-08-25T01:42:13.406Z,5.75
2022-08-25T01:44:44.325Z,5.40
2022-08-25T01:47:13.084Z,5.30
2022-08-25T01:49:41.377Z,6.18
2022-08-25T01:52:16.529Z,5.78
2022-08-25T01:54:44.845Z,5.32
2022-08-25T01:57:12.785Z,5.32
2022-08-25T01:59:41.425Z,4.90
2022-08-25T02:02:09.815Z,5.22
2022-08-25T02:04:40.682Z,5.47
2022-08-25T02:07:12.354Z,5.18
2022-08-25T02:09:40.654Z,5.68
2022-08-25T02:12:09.714Z,5.20
2022-08-25T02:14:38.044Z,5.70
2022-08-25T02:17:07.082Z,6.00
2022-08-25T02:19:35.077Z,5.65
2022-08-25T02:22:03.083Z,5.00
2022-08-25T02:24:31.343Z,5.43
2022-08-25T02:26:59.665Z,6.10
2022-08-25T02:29:27.774Z,6.22
2022-08-25T02:31:55.983Z,5.90
2022-08-25T02:34:24.033Z,5.60
2022-08-25T02:36:51.794Z,5.60
2022-08-25T02:39:20.025Z,6.32
2022-08-25T02:41:47.875Z,6.35
2022-08-25T02:44:15.652Z,7.22
2022-08-25T02:46:44.159Z,5.22
2022-08-25T02:49:11.864Z,5.68
2022-08-25T02:51:39.673Z,5.35
2022-08-25T02:54:07.941Z,5.93
2022-08-25T02:56:35.780Z,5.55
2022-08-25T02:59:03.739Z,6.12
2022-08-25T03:01:32.955Z,5.32
2022-08-25T03:04:02.544Z,6.05
2022-08-25T03:06:30.606Z,6.15
2022-08-25T03:08:59.001Z,6.30
2022-08-25T03:11:26.810Z,5.87
2022-08-25T03:13:56.649Z,6.20
2022-08-25T03:16:27.810Z,5.80
2022-08-25T03:18:56.093Z,6.43
2022-08-25T03:21:24.941Z,6.03
2022-08-25T03:23:52.974Z,6.68
2022-08-25T03:26:39.352Z,7.72
2022-08-25T03:31:35.561Z,7.20
2022-08-25T03:34:03.791Z,5.20
2022-08-25T03:36:31.974Z,5.90
2022-08-25T03:39:00.441Z,5.53
2022-08-25T03:41:30.350Z,6.53
2022-08-25T03:43:59.971Z,5.95
2022-08-25T03:46:30.194Z,6.00
2022-08-25T03:49:00.212Z,6.22
2022-08-25T03:51:40.643Z,6.95
2022-08-25T03:54:10.727Z,5.55
2022-08-25T03:56:38.592Z,5.85
2022-08-25T03:59:09.361Z,6.37
2022-08-25T04:01:42.191Z,5.78
2022-08-25T04:04:13.092Z,6.20
2022-08-25T04:06:41.882Z,5.12
2022-08-25T04:09:10.941Z,7.32
2022-08-25T04:11:39.132Z,6.25
2022-08-25T04:14:07.114Z,5.95
2022-08-25T04:16:36.242Z,6.57
2022-08-25T04:19:07.603Z,6.50
2022-08-25T04:21:36.801Z,5.85
2022-08-25T04:24:06.301Z,6.07
2022-08-25T04:26:37.401Z,6.43
2022-08-25T04:29:07.217Z,5.45
2022-08-25T04:31:35.175Z,5.55
2022-08-25T04:34:04.343Z,6.35
2022-08-25T04:36:43.023Z,5.93
2022-08-25T04:39:10.960Z,6.12
2022-08-25T04:41:39.793Z,5.47
2022-08-25T04:44:08.138Z,6.03
2022-08-25T04:46:36.151Z,6.07
2022-08-25T04:49:04.183Z,5.50
2022-08-25T04:51:36.434Z,6.18
2022-08-25T04:54:06.540Z,6.25
2022-08-25T04:56:35.241Z,5.60
2022-08-25T04:59:10.050Z,6.07
2022-08-25T05:01:39.204Z,6.05
2022-08-25T05:04:08.803Z,5.87
2022-08-25T05:06:43.771Z,6.68
2022-08-25T05:09:12.931Z,6.55
2022-08-25T05:11:48.244Z,6.53
2022-08-25T05:14:18.572Z,5.85
2022-08-25T05:16:46.441Z,6.18
2022-08-25T05:19:14.922Z,5.78
2022-08-25T05:21:42.848Z,6.25
2022-08-25T05:24:10.768Z,6.43
2022-08-25T05:26:39.075Z,6.15
2022-08-25T05:29:07.550Z,5.97
2022-08-25T05:31:41.705Z,6.35
2022-08-25T05:34:12.455Z,6.22
2022-08-25T05:36:43.593Z,6.45
2022-08-25T05:39:11.891Z,6.20
2022-08-25T05:41:39.655Z,6.10
2022-08-25T05:44:07.920Z,5.62
2022-08-25T05:46:36.061Z,6.12
2022-08-25T05:49:03.892Z,6.40
2022-08-25T05:51:31.708Z,6.43
2022-08-25T05:54:00.014Z,6.75
2022-08-25T05:56:27.842Z,5.95
2022-08-25T05:58:55.717Z,6.30
2022-08-25T06:01:45.595Z,5.75
2022-08-25T06:04:15.768Z,6.25
2022-08-25T06:06:43.844Z,7.05
2022-08-25T06:09:11.763Z,5.18
2022-08-25T06:11:40.854Z,6.07
2022-08-25T06:14:10.113Z,5.18
2022-08-25T06:16:39.204Z,4.87
2022-08-25T06:19:09.139Z,5.20
2022-08-25T06:21:39.310Z,4.93
2022-08-25T06:24:14.831Z,4.80
2022-08-25T06:26:44.393Z,5.65
2022-08-25T06:29:14.307Z,4.55
2022-08-25T06:31:43.123Z,4.55
2022-08-25T06:34:12.006Z,3.87
2022-08-25T06:36:40.754Z,4.78
2022-08-25T06:39:10.607Z,4.37
2022-08-25T06:41:39.305Z,4.35
2022-08-25T06:44:07.502Z,4.15
2022-08-25T06:46:36.578Z,3.55
2022-08-25T06:49:06.302Z,4.05
2022-08-25T06:51:37.683Z,3.60
2022-08-25T06:54:10.403Z,3.83
2022-08-25T06:56:41.202Z,3.83
2022-08-25T06:59:10.043Z,4.45
2022-08-25T07:01:38.487Z,3.55
2022-08-25T07:04:11.804Z,3.40
2022-08-25T07:06:41.988Z,3.67
2022-08-25T07:09:11.477Z,3.97
2022-08-25T07:11:42.680Z,3.30
2022-08-25T07:14:13.044Z,3.45
2022-08-25T07:16:42.461Z,4.05
2022-08-25T07:19:14.733Z,3.22
2022-08-25T07:21:45.683Z,3.10
2022-08-25T07:24:14.426Z,3.45
2022-08-25T07:26:43.872Z,3.50
2022-08-25T07:29:16.123Z,2.80
2022-08-25T07:31:46.295Z,2.95
2022-08-25T07:34:33.183Z,3.33
2022-08-25T07:37:06.152Z,3.20
2022-08-25T07:39:34.683Z,2.70
2022-08-25T07:42:03.141Z,3.08
2022-08-25T07:44:31.333Z,3.45
2022-08-25T07:46:59.228Z,2.70
2022-08-25T07:52:16.396Z,2.97
2022-08-25T07:54:45.509Z,3.30
2022-08-25T07:57:15.114Z,3.47
2022-08-25T07:59:43.132Z,3.05
2022-08-25T08:02:18.693Z,2.87
2022-08-25T08:04:50.102Z,2.78
2022-08-25T08:07:24.092Z,2.75
2022-08-25T08:10:42.299Z,2.45
2022-08-25T08:13:00.725Z,2.83
2022-08-25T08:15:29.774Z,2.70
2022-08-25T08:17:59.330Z,3.60
2022-08-25T08:20:29.111Z,3.17
2022-08-25T08:22:58.349Z,2.92
2022-08-25T08:25:27.765Z,3.37
2022-08-25T08:27:56.569Z,3.15
2022-08-25T08:30:26.214Z,3.60
2022-08-25T08:33:11.811Z,3.33
2022-08-25T08:35:41.601Z,3.33
2022-08-25T08:38:16.141Z,3.55
2022-08-25T08:41:26.590Z,3.42
2022-08-25T08:44:16.414Z,3.40
2022-08-25T08:46:50.143Z,2.97
2022-08-25T08:49:49.593Z,3.40
2022-08-25T08:52:20.707Z,3.65
2022-08-25T08:54:52.061Z,3.60
2022-08-25T08:57:25.781Z,3.47
2022-08-25T09:00:00.740Z,3.95
2022-08-25T09:02:49.964Z,4.12
2022-08-25T09:05:21.883Z,4.05
2022-08-25T09:08:20.487Z,3.20
2022-08-25T09:11:23.259Z,3.78
2022-08-25T09:14:04.981Z,3.22
2022-08-25T09:16:55.188Z,3.58
2022-08-25T09:20:05.356Z,4.87
2022-08-25T09:22:53.761Z,3.72
2022-08-25T09:25:53.448Z,3.97
2022-08-25T09:28:40.172Z,3.53
2022-08-25T09:31:17.525Z,3.28
2022-08-25T09:33:45.883Z,3.28
2022-08-25T09:36:15.308Z,2.72
2022-08-25T09:38:44.714Z,3.70
2022-08-25T09:41:17.130Z,2.90
2022-08-25T09:43:54.034Z,3.22
2022-08-25T09:46:28.492Z,2.70
2022-08-25T09:51:43.371Z,3.12
2022-08-25T09:54:18.204Z,3.35
2022-08-25T09:56:57.341Z,3.27
2022-08-25T09:59:34.528Z,2.55
2022-08-25T10:02:25.962Z,2.65
2022-08-25T10:04:55.743Z,3.35
2022-08-25T10:07:34.406Z,3.05
2022-08-25T10:10:08.491Z,2.83
2022-08-25T10:12:43.259Z,2.85
2022-08-25T10:15:29.558Z,2.85
2022-08-25T10:18:26.263Z,2.75
2022-08-25T10:21:08.956Z,2.70
2022-08-25T10:23:43.631Z,3.00
2022-08-25T10:26:19.832Z,2.90
2022-08-25T10:28:54.293Z,3.25
2022-08-25T10:31:36.541Z,2.80
2022-08-25T10:34:31.309Z,2.90
2022-08-25T10:37:21.528Z,3.30
2022-08-25T10:40:03.822Z,2.83
2022-08-25T10:43:11.071Z,2.90
2022-08-25T10:45:52.678Z,2.53
2022-08-25T10:48:26.113Z,2.42
2022-08-25T10:51:07.400Z,2.45
2022-08-25T10:53:50.775Z,2.50
2022-08-25T10:56:22.093Z,2.80
2022-08-25T10:59:31.840Z,2.72
2022-08-25T11:02:13.021Z,2.50
2022-08-25T11:04:50.151Z,2.08
2022-08-25T11:07:23.600Z,2.30
2022-08-25T11:09:55.014Z,2.50
2022-08-25T11:12:30.911Z,2.78
2022-08-25T11:15:15.541Z,2.50
2022-08-25T11:17:59.330Z,2.93
2022-08-25T11:21:02.881Z,2.70
2022-08-25T11:23:42.311Z,2.20
2022-08-25T11:26:26.153Z,2.58
2022-08-25T11:29:22.379Z,2.83
2022-08-25T11:31:54.572Z,2.92
2022-08-25T11:34:23.428Z,2.85
2022-08-25T11:36:57.427Z,3.12
2022-08-25T11:39:53.089Z,3.00
2022-08-25T11:42:54.807Z,2.65
2022-08-25T11:45:45.691Z,2.58
2022-08-25T11:48:39.650Z,2.58
2022-08-25T11:51:28.038Z,2.33
2022-08-25T11:54:30.421Z,2.65
2022-08-25T11:57:05.771Z,2.97
2022-08-25T11:59:53.403Z,2.80
2022-08-25T12:02:49.280Z,2.70
2022-08-25T12:08:11.615Z,3.20
2022-08-25T12:11:00.417Z,3.10
2022-08-25T12:13:50.780Z,2.95
2022-08-25T12:16:36.176Z,2.87
2022-08-25T12:19:24.359Z,3.45
2022-08-25T12:22:27.185Z,2.80
2022-08-25T12:25:06.423Z,3.20
2022-08-25T12:27:58.461Z,2.67
2022-08-25T12:30:31.188Z,2.85
2022-08-25T12:33:19.872Z,2.83
2022-08-25T12:35:59.238Z,2.72
2022-08-25T12:38:30.362Z,2.92
2022-08-25T12:41:05.520Z,3.00
2022-08-25T12:43:39.862Z,3.47
2022-08-25T12:46:26.477Z,2.90
2022-08-25T12:48:57.612Z,3.10
2022-08-25T12:51:28.559Z,3.00
2022-08-25T12:54:15.904Z,3.40
2022-08-25T12:56:54.203Z,3.50
2022-08-25T12:59:39.595Z,3.47
2022-08-25T13:02:37.685Z,2.95
2022-08-25T13:05:17.279Z,3.05
2022-08-25T13:08:33.725Z,2.90
2022-08-25T13:11:09.846Z,2.63
2022-08-25T13:13:39.571Z,3.20
2022-08-25T13:16:10.878Z,3.42
2022-08-25T13:18:39.983Z,2.65
2022-08-25T13:21:18.091Z,3.05
2022-08-25T13:24:01.610Z,2.80
2022-08-25T13:26:48.167Z,2.65
2022-08-25T13:29:21.765Z,3.03
2022-08-25T13:31:55.023Z,3.33
2022-08-25T13:34:34.575Z,3.58
2022-08-25T13:37:31.331Z,3.35
2022-08-25T13:42:42.418Z,3.25
2022-08-25T13:45:18.440Z,3.03
2022-08-25T13:47:48.093Z,3.03
2022-08-25T13:50:20.041Z,2.80
2022-08-25T13:53:11.581Z,2.42
2022-08-25T13:55:51.018Z,3.15
2022-08-25T13:58:39.305Z,2.75
2022-08-25T14:01:48.196Z,3.00
2022-08-25T14:04:27.415Z,2.85
2022-08-25T14:07:23.767Z,3.17
2022-08-25T14:09:55.111Z,2.92
2022-08-25T14:12:35.897Z,2.87
2022-08-25T14:15:09.315Z,3.28
2022-08-25T14:17:40.956Z,2.95
2022-08-25T14:20:29.245Z,3.10
2022-08-25T14:23:01.849Z,3.15
2022-08-25T14:25:31.496Z,2.85
2022-08-25T14:28:06.847Z,2.92
2022-08-25T14:30:43.536Z,3.28
2022-08-25T14:33:16.988Z,3.70
2022-08-25T14:35:50.917Z,3.00
2022-08-25T14:38:21.460Z,3.10
2022-08-25T14:40:51.189Z,3.30
2022-08-25T14:43:23.822Z,3.40
2022-08-25T14:45:53.175Z,2.80
2022-08-25T14:48:26.632Z,3.47
2022-08-25T14:50:56.831Z,2.83
2022-08-25T14:53:25.661Z,3.15
2022-08-25T14:55:58.739Z,3.55
2022-08-25T14:58:33.994Z,2.97
2022-08-25T15:01:03.274Z,3.08
2022-08-25T15:03:38.026Z,3.22
2022-08-25T15:06:07.849Z,2.90
2022-08-25T15:08:58.091Z,3.00
2022-08-25T15:11:26.980Z,3.00
2022-08-25T15:13:58.468Z,3.45
2022-08-25T15:17:04.943Z,3.28
2022-08-25T15:19:35.454Z,3.37
2022-08-25T15:22:03.427Z,3.25
2022-08-25T15:24:38.000Z,3.50
2022-08-25T15:27:12.343Z,3.33
2022-08-25T15:29:43.538Z,3.45
2022-08-25T15:32:17.129Z,3.55
2022-08-25T15:34:47.045Z,3.30
2022-08-25T15:37:19.260Z,3.42
2022-08-25T15:39:50.709Z,3.17
2022-08-25T15:42:20.939Z,2.90
2022-08-25T15:44:53.144Z,3.47
2022-08-25T15:47:22.670Z,2.80
2022-08-25T15:50:00.424Z,3.10
2022-08-25T15:52:45.964Z,3.15
2022-08-25T15:55:18.514Z,3.12
2022-08-25T15:57:50.495Z,3.12
2022-08-25T16:00:19.867Z,2.95
2022-08-25T16:02:50.886Z,3.10
2022-08-25T16:05:25.210Z,3.30
2022-08-25T16:07:56.479Z,4.03
2022-08-25T16:10:26.979Z,3.12
2022-08-25T16:12:56.189Z,3.05
2022-08-25T16:15:28.967Z,3.45
2022-08-25T16:18:00.933Z,2.80
2022-08-25T16:20:30.266Z,2.87
2022-08-25T16:23:00.720Z,2.78
2022-08-25T16:25:32.173Z,2.92
2022-08-25T16:28:03.623Z,3.08
2022-08-25T16:30:31.532Z,3.70
2022-08-25T16:32:59.415Z,3.28
2022-08-25T16:35:30.745Z,3.20
2022-08-25T16:37:59.721Z,3.03
2022-08-25T16:40:32.911Z,3.08
2022-08-25T16:43:01.771Z,3.40
2022-08-25T16:45:31.843Z,3.40
2022-08-25T16:48:00.329Z,3.50
2022-08-25T16:50:30.562Z,3.55
2022-08-25T16:53:23.854Z,2.97
2022-08-25T16:56:03.339Z,3.85
2022-08-25T16:58:33.583Z,3.08
2022-08-25T17:01:09.586Z,3.92
2022-08-25T17:03:43.982Z,3.15
2022-08-25T17:06:14.275Z,2.97
2022-08-25T17:08:44.451Z,2.90
2022-08-25T17:11:19.902Z,3.15
2022-08-25T17:13:52.424Z,3.10
2022-08-25T17:16:22.315Z,3.65
2022-08-25T17:18:50.471Z,3.30
2022-08-25T17:21:24.104Z,2.92
2022-08-25T17:23:55.671Z,3.50
2022-08-25T17:26:27.575Z,3.50
2022-08-25T17:29:00.590Z,2.95
2022-08-25T17:31:31.191Z,4.00
2022-08-25T17:34:00.315Z,3.75
2022-08-25T17:36:28.846Z,3.67
2022-08-25T17:38:57.101Z,4.05
2022-08-25T17:41:26.104Z,3.12
2022-08-25T17:43:54.181Z,3.70
2022-08-25T17:46:22.122Z,3.60
2022-08-25T17:48:50.281Z,3.70
2022-08-25T17:51:18.301Z,3.85
2022-08-25T17:53:46.784Z,4.50
2022-08-25T17:56:17.073Z,3.40
2022-08-25T17:58:47.450Z,3.42
2022-08-25T18:01:24.890Z,3.65
2022-08-25T18:03:54.549Z,3.97
2022-08-25T18:06:25.242Z,3.80
2022-08-25T18:08:58.747Z,3.75
2022-08-25T18:11:28.913Z,3.53
2022-08-25T18:13:58.718Z,3.58
2022-08-25T18:16:27.171Z,3.75
2022-08-25T18:18:56.142Z,3.60
2022-08-25T18:21:30.246Z,3.50
2022-08-25T18:23:59.058Z,3.97
2022-08-25T18:26:27.942Z,4.53
2022-08-25T18:28:55.989Z,3.85
2022-08-25T18:31:23.876Z,3.60
2022-08-25T18:33:53.060Z,4.12
2022-08-25T18:36:21.317Z,3.83
2022-08-25T18:39:08.189Z,4.05
2022-08-25T18:41:40.051Z,4.20
2022-08-25T18:44:10.583Z,4.03
2022-08-25T18:46:40.059Z,4.35
2022-08-25T18:49:09.945Z,4.03
2022-08-25T18:51:38.432Z,4.07
2022-08-25T18:54:07.105Z,3.65
2022-08-25T18:56:54.083Z,4.43
2022-08-25T18:59:23.732Z,4.00
2022-08-25T19:01:53.317Z,4.18
2022-08-25T19:04:28.591Z,4.28
2022-08-25T19:07:01.170Z,3.80
2022-08-25T19:09:29.732Z,4.10
2022-08-25T19:11:59.351Z,4.40
2022-08-25T19:14:27.511Z,3.60
2022-08-25T19:16:58.145Z,4.12
2022-08-25T19:19:26.260Z,4.37
2022-08-25T19:21:54.424Z,4.07
2022-08-25T19:24:22.523Z,3.80
2022-08-25T19:26:54.440Z,4.40
2022-08-25T19:29:24.220Z,4.22
2022-08-25T19:31:52.311Z,4.10
2022-08-25T19:34:28.060Z,4.18
2022-08-25T19:37:02.103Z,4.18
2022-08-25T19:39:34.228Z,4.30
2022-08-25T19:42:03.271Z,4.37
2022-08-25T19:44:31.609Z,4.12
2022-08-25T19:46:59.880Z,4.57
2022-08-25T19:49:34.375Z,4.28
2022-08-25T19:52:10.595Z,4.40
2022-08-25T19:54:45.851Z,3.55
2022-08-25T19:57:28.486Z,3.85
2022-08-25T20:00:18.520Z,3.95
2022-08-25T20:02:47.951Z,4.82
2022-08-25T20:05:23.834Z,4.80
2022-08-25T20:07:53.423Z,4.37
2022-08-25T20:10:23.012Z,4.22
2022-08-25T20:12:52.039Z,4.85
2022-08-25T20:15:22.081Z,4.00
2022-08-25T20:17:51.423Z,4.18
2022-08-25T20:20:25.952Z,4.32
2022-08-25T20:25:48.665Z,3.83
2022-08-25T20:28:19.047Z,4.35
2022-08-25T20:30:47.044Z,4.15
2022-08-25T20:33:22.538Z,3.92
2022-08-25T20:38:21.438Z,3.92
2022-08-25T20:40:49.331Z,4.12
2022-08-25T20:43:18.001Z,4.12
2022-08-25T20:45:49.464Z,4.22
2022-08-25T20:48:17.581Z,4.70
2022-08-25T20:50:45.377Z,4.87
2022-08-25T20:53:25.933Z,4.65
2022-08-25T20:55:53.841Z,4.50
2022-08-25T20:58:21.572Z,4.80
2022-08-25T21:00:51.802Z,3.95
2022-08-25T21:03:20.632Z,4.32
2022-08-25T21:05:48.313Z,3.85
2022-08-25T21:08:23.821Z,4.37
2022-08-25T21:10:53.262Z,4.32
2022-08-25T21:13:21.231Z,5.00
2022-08-25T21:15:51.110Z,4.07
2022-08-25T21:18:18.861Z,3.83
2022-08-25T21:20:47.290Z,4.10
2022-08-25T21:23:15.390Z,4.05
2022-08-25T21:25:43.492Z,4.45
2022-08-25T21:28:11.591Z,3.70
2022-08-25T21:30:44.770Z,4.07
2022-08-25T21:33:15.686Z,4.25
2022-08-25T21:35:44.171Z,4.37
2022-08-25T21:38:14.744Z,3.87
2022-08-25T21:40:44.999Z,4.18
2022-08-25T21:43:13.392Z,5.05
2022-08-25T21:45:46.701Z,4.37
2022-08-25T21:48:15.761Z,4.28
2022-08-25T21:50:43.628Z,4.28
2022-08-25T21:53:11.887Z,3.87
2022-08-25T21:55:41.895Z,4.75
2022-08-25T21:58:09.951Z,4.30
2022-08-25T22:00:37.651Z,4.55
2022-08-25T22:03:05.846Z,4.37
2022-08-25T22:05:36.950Z,4.37
2022-08-25T22:08:05.751Z,4.00
2022-08-25T22:10:33.671Z,4.55
2022-08-25T22:13:01.814Z,4.50
2022-08-25T22:15:30.882Z,3.90
2022-08-25T22:17:58.904Z,4.12
2022-08-25T22:20:28.990Z,4.07
2022-08-25T22:22:57.161Z,5.03
2022-08-25T22:25:25.094Z,4.28
2022-08-25T22:27:56.571Z,4.03
2022-08-25T22:30:25.726Z,3.90
2022-08-25T22:32:58.853Z,4.30
2022-08-25T22:35:27.991Z,3.58
2022-08-25T22:37:55.773Z,4.05
2022-08-25T22:40:23.526Z,3.85
2022-08-25T22:42:52.323Z,4.40
2022-08-25T22:45:20.492Z,4.45
2022-08-25T22:47:49.311Z,4.00
2022-08-25T22:50:18.102Z,4.35
2022-08-25T22:52:47.326Z,3.97
2022-08-25T22:55:16.398Z,4.18
2022-08-25T22:57:45.099Z,4.60
2022-08-25T23:00:14.769Z,4.20
2022-08-25T23:02:43.122Z,4.25
2022-08-25T23:05:13.071Z,4.00
2022-08-25T23:07:41.392Z,4.40
2022-08-25T23:10:11.907Z,4.05
2022-08-25T23:12:40.562Z,4.30
2022-08-25T23:15:13.069Z,4.50
2022-08-25T23:17:42.359Z,3.87
2022-08-25T23:20:29.498Z,4.53
2022-08-25T23:22:59.032Z,4.10
2022-08-25T23:25:27.057Z,5.50
2022-08-25T23:27:54.940Z,5.47
2022-08-25T23:30:27.121Z,4.60
2022-08-25T23:32:55.120Z,3.83
2022-08-25T23:35:23.162Z,4.95
2022-08-25T23:37:51.572Z,4.68
2022-08-25T23:40:19.787Z,3.92
2022-08-25T23:42:48.145Z,5.03
2022-08-25T23:45:16.343Z,5.00
2022-08-25T23:47:44.172Z,4.18
2022-08-25T23:50:12.870Z,3.87
2022-08-25T23:52:40.720Z,4.37
2022-08-25T23:55:08.790Z,4.25
2022-08-25T23:57:36.931Z,4.87
